Terminal Aerodrome Forecast
Issued by NWS Charleston, WV

Current Version | Previous Version | Graphics & Text | Print | Product List | Glossary On
Versions: 1 2 3 4 5 6 7 8 9 10 11 12 13 14 15 16 17 18 19 20 21 22 23
913
FTUS41 KRLX 100911 AAA
TAFPKB
TAF AMD
KPKB 100911Z 1009/1106 27009KT P6SM OVC015
      TEMPO 1009/1013 SCT015 OVC035
     FM101400 25009KT P6SM OVC025
     FM101700 25009KT 5SM -SHSN HZ OVC025
     FM102200 25010G19KT P6SM -SHSN OVC035
     FM102300 26010G19KT P6SM BKN040
     FM110200 26010G20KT P6SM BKN025
     FM110400 26010G20KT P6SM BKN015=

USA.gov is the U.S. government's official web portal to all federal, state and local government web resources and services.